createdAt,value
2023-02-12T00:01:49.949Z,7.95
2023-02-12T00:04:17.066Z,7.92
2023-02-12T00:06:43.614Z,8.01
2023-02-12T00:09:10.207Z,8.06
2023-02-12T00:11:36.838Z,7.98
2023-02-12T00:14:05.110Z,7.94
2023-02-12T00:16:31.791Z,7.87
2023-02-12T00:18:58.892Z,7.81
2023-02-12T00:21:25.557Z,7.78
2023-02-12T00:23:52.177Z,7.84
2023-02-12T00:26:20.539Z,7.88
2023-02-12T00:28:50.395Z,7.78
2023-02-12T00:31:18.982Z,7.78
2023-02-12T00:33:46.072Z,7.85
2023-02-12T00:36:17.983Z,7.83
2023-02-12T00:38:45.161Z,7.78
2023-02-12T00:41:11.969Z,7.76
2023-02-12T00:43:38.974Z,7.80
2023-02-12T00:46:07.069Z,7.74
2023-02-12T00:48:34.208Z,7.72
2023-02-12T00:51:00.874Z,7.92
2023-02-12T00:53:28.652Z,7.93
2023-02-12T00:55:55.513Z,7.91
2023-02-12T00:58:22.880Z,7.94
2023-02-12T01:00:49.571Z,7.97
2023-02-12T01:03:16.221Z,8.03
2023-02-12T01:05:42.802Z,8.00
2023-02-12T01:08:11.740Z,8.09
2023-02-12T01:10:38.309Z,8.04
2023-02-12T01:13:05.012Z,8.01
2023-02-12T01:15:31.548Z,8.03
2023-02-12T01:17:58.167Z,8.04
2023-02-12T01:20:25.117Z,8.00
2023-02-12T01:22:52.879Z,8.03
2023-02-12T01:25:20.796Z,8.06
2023-02-12T01:27:47.695Z,8.08
2023-02-12T01:30:17.702Z,8.08
2023-02-12T01:32:44.475Z,8.10
2023-02-12T01:35:11.384Z,8.13
2023-02-12T01:37:40.649Z,8.18
2023-02-12T01:40:09.201Z,8.14
2023-02-12T01:42:35.794Z,8.17
2023-02-12T01:45:14.661Z,8.06
2023-02-12T01:47:45.421Z,8.03
2023-02-12T01:50:14.635Z,8.04
2023-02-12T01:52:43.519Z,8.09
2023-02-12T01:55:10.508Z,8.07
2023-02-12T01:57:38.936Z,8.05
2023-02-12T02:00:09.640Z,8.04
2023-02-12T02:02:42.674Z,8.04
2023-02-12T02:05:09.531Z,7.95
2023-02-12T02:07:36.268Z,7.94
2023-02-12T02:10:04.012Z,7.91
2023-02-12T02:12:49.229Z,7.86
2023-02-12T02:15:16.848Z,7.82
2023-02-12T02:18:09.087Z,7.75
2023-02-12T02:21:01.769Z,7.82
2023-02-12T02:23:31.344Z,7.85
2023-02-12T02:26:16.446Z,7.76
2023-02-12T02:28:49.121Z,7.84
2023-02-12T02:31:34.224Z,7.81
2023-02-12T02:34:19.416Z,7.77
2023-02-12T02:37:00.024Z,7.76
2023-02-12T02:39:35.430Z,7.77
2023-02-12T02:42:08.557Z,7.75
2023-02-12T02:44:37.869Z,7.75
2023-02-12T02:47:07.290Z,7.76
2023-02-12T02:49:38.287Z,7.78
2023-02-12T02:52:07.704Z,7.70
2023-02-12T02:54:37.711Z,7.68
2023-02-12T02:57:08.163Z,7.72
2023-02-12T02:59:37.399Z,7.74
2023-02-12T03:02:12.575Z,7.74
2023-02-12T03:04:42.400Z,7.80
2023-02-12T03:07:11.824Z,7.85
2023-02-12T03:09:47.111Z,7.88
2023-02-12T03:12:20.121Z,7.90
2023-02-12T03:14:49.873Z,7.87
2023-02-12T03:17:27.986Z,7.85
2023-02-12T03:20:04.107Z,7.90
2023-02-12T03:22:36.421Z,7.81
2023-02-12T03:25:09.758Z,7.78
2023-02-12T03:27:42.308Z,7.81
2023-02-12T03:30:09.346Z,7.81
2023-02-12T03:32:40.740Z,7.72
2023-02-12T03:35:07.387Z,7.72
2023-02-12T03:37:37.125Z,7.71
2023-02-12T03:40:22.300Z,7.68
2023-02-12T03:43:01.965Z,7.64
2023-02-12T03:45:33.974Z,7.68
2023-02-12T03:48:11.396Z,7.58
2023-02-12T03:50:44.831Z,7.59
2023-02-12T03:53:11.783Z,7.62
2023-02-12T03:55:40.898Z,7.65
2023-02-12T03:58:09.469Z,7.60
2023-02-12T04:00:37.616Z,7.63
2023-02-12T04:03:04.834Z,7.59
2023-02-12T04:05:31.413Z,7.58
2023-02-12T04:07:59.078Z,7.56
2023-02-12T04:10:34.724Z,7.59
2023-02-12T04:13:14.756Z,7.60
2023-02-12T04:16:00.132Z,7.57
2023-02-12T04:18:32.727Z,7.58
2023-02-12T04:20:59.274Z,7.59
2023-02-12T04:23:25.829Z,7.66
2023-02-12T04:25:56.150Z,7.59
2023-02-12T04:28:35.177Z,7.61
2023-02-12T04:31:08.027Z,7.61
2023-02-12T04:33:39.293Z,7.57
2023-02-12T04:36:09.186Z,7.58
2023-02-12T04:38:45.822Z,7.56
2023-02-12T04:41:12.966Z,7.52
2023-02-12T04:43:39.601Z,7.47
2023-02-12T04:46:08.042Z,7.49
2023-02-12T04:48:36.163Z,7.50
2023-02-12T04:51:03.004Z,7.47
2023-02-12T04:53:29.563Z,7.47
2023-02-12T04:55:56.452Z,7.47
2023-02-12T04:58:23.291Z,7.54
2023-02-12T05:00:49.851Z,7.46
2023-02-12T05:03:16.436Z,7.42
2023-02-12T05:05:43.076Z,7.48
2023-02-12T05:08:09.613Z,7.45
2023-02-12T05:10:36.289Z,7.35
2023-02-12T05:13:02.854Z,7.43
2023-02-12T05:15:31.404Z,7.45
2023-02-12T05:17:57.954Z,7.46
2023-02-12T05:20:24.567Z,7.40
2023-02-12T05:22:51.987Z,7.42
2023-02-12T05:25:18.551Z,7.46
2023-02-12T05:27:45.121Z,7.33
2023-02-12T05:30:12.082Z,7.34
2023-02-12T05:32:38.700Z,7.33
2023-02-12T05:35:07.468Z,7.33
2023-02-12T05:37:34.962Z,7.23
2023-02-12T05:40:01.905Z,7.28
2023-02-12T05:42:29.207Z,7.26
2023-02-12T05:44:55.854Z,7.32
2023-02-12T05:47:22.385Z,7.22
2023-02-12T05:49:48.957Z,7.30
2023-02-12T05:52:15.488Z,7.27
2023-02-12T05:54:42.114Z,7.22
2023-02-12T05:57:08.665Z,7.13
2023-02-12T05:59:35.273Z,7.12
2023-02-12T06:02:01.839Z,7.06
2023-02-12T06:04:29.033Z,7.02
2023-02-12T06:06:56.126Z,6.94
2023-02-12T06:09:23.091Z,6.88
2023-02-12T06:11:49.654Z,6.85
2023-02-12T06:14:18.385Z,6.81
2023-02-12T06:16:46.728Z,6.79
2023-02-12T06:19:13.462Z,6.64
2023-02-12T06:21:40.025Z,6.57
2023-02-12T06:24:07.162Z,6.42
2023-02-12T06:26:33.786Z,6.39
2023-02-12T06:29:01.053Z,6.34
2023-02-12T06:31:31.972Z,6.29
2023-02-12T06:34:00.340Z,6.20
2023-02-12T06:36:27.166Z,6.21
2023-02-12T06:38:53.778Z,6.12
2023-02-12T06:41:21.065Z,5.97
2023-02-12T06:43:47.723Z,5.89
2023-02-12T06:46:14.745Z,5.83
2023-02-12T06:48:41.501Z,5.78
2023-02-12T06:51:12.341Z,5.79
2023-02-12T06:53:39.188Z,5.79
2023-02-12T06:56:06.814Z,5.71
2023-02-12T06:58:33.420Z,5.68
2023-02-12T07:01:13.761Z,5.69
2023-02-12T07:03:44.817Z,5.59
2023-02-12T07:06:11.501Z,5.55
2023-02-12T07:08:38.122Z,5.53
2023-02-12T07:11:05.055Z,5.51
2023-02-12T07:13:34.748Z,5.48
2023-02-12T07:16:08.875Z,5.47
2023-02-12T07:18:36.130Z,5.38
2023-02-12T07:21:03.011Z,5.32
2023-02-12T07:23:29.661Z,5.36
2023-02-12T07:25:57.382Z,5.43
2023-02-12T07:28:24.428Z,5.44
2023-02-12T07:30:51.653Z,5.41
2023-02-12T07:33:18.366Z,5.39
2023-02-12T07:35:45.086Z,5.35
2023-02-12T07:38:11.954Z,5.36
2023-02-12T07:40:38.521Z,5.39
2023-02-12T07:43:05.185Z,5.38
2023-02-12T07:45:35.454Z,5.36
2023-02-12T07:48:02.100Z,5.34
2023-02-12T07:50:28.696Z,5.31
2023-02-12T07:52:55.350Z,5.35
2023-02-12T07:55:22.073Z,5.36
2023-02-12T07:57:48.656Z,5.36
2023-02-12T08:00:15.568Z,5.37
2023-02-12T08:02:42.274Z,5.34
2023-02-12T08:05:08.848Z,5.31
2023-02-12T08:07:35.556Z,5.30
2023-02-12T08:10:02.249Z,5.34
2023-02-12T08:12:28.913Z,5.32
2023-02-12T08:14:55.587Z,5.35
2023-02-12T08:17:22.204Z,5.35
2023-02-12T08:19:48.774Z,5.42
2023-02-12T08:22:15.389Z,5.41
2023-02-12T08:24:42.704Z,5.46
2023-02-12T08:27:09.284Z,5.42
2023-02-12T08:29:35.892Z,5.55
2023-02-12T08:32:03.752Z,6.00
2023-02-12T08:34:32.114Z,6.66
2023-02-12T08:36:59.233Z,7.26
2023-02-12T08:39:27.679Z,7.62
2023-02-12T08:41:54.848Z,7.98
2023-02-12T08:44:21.444Z,8.44
2023-02-12T08:46:50.216Z,8.89
2023-02-12T08:49:24.346Z,9.39
2023-02-12T08:51:52.256Z,9.18
2023-02-12T08:54:20.364Z,9.09
2023-02-12T08:56:47.160Z,9.60
2023-02-12T08:59:14.978Z,9.43
2023-02-12T09:01:41.866Z,10.16
2023-02-12T09:04:15.241Z,10.08
2023-02-12T09:06:41.920Z,10.19
2023-02-12T09:09:08.519Z,10.30
2023-02-12T09:11:35.583Z,10.72
2023-02-12T09:14:03.652Z,10.52
2023-02-12T09:16:31.009Z,10.77
2023-02-12T09:18:57.727Z,10.81
2023-02-12T09:21:24.548Z,11.15
2023-02-12T09:23:51.616Z,10.99
2023-02-12T09:26:20.784Z,11.11
2023-02-12T09:28:47.801Z,10.77
2023-02-12T09:31:16.357Z,10.44
2023-02-12T09:33:42.938Z,10.36
2023-02-12T09:36:14.184Z,10.88
2023-02-12T09:38:41.359Z,11.01
2023-02-12T09:41:17.052Z,11.03
2023-02-12T09:43:53.054Z,11.70
2023-02-12T09:46:28.994Z,11.67
2023-02-12T09:48:58.607Z,11.57
2023-02-12T09:51:26.725Z,11.21
2023-02-12T09:54:00.273Z,11.81
2023-02-12T09:56:28.040Z,11.68
2023-02-12T09:58:59.020Z,12.10
2023-02-12T10:01:28.891Z,11.36
2023-02-12T10:03:55.964Z,11.61
2023-02-12T10:06:25.787Z,11.89
2023-02-12T10:08:55.522Z,11.99
2023-02-12T10:11:22.095Z,12.12
2023-02-12T10:14:02.544Z,12.50
2023-02-12T10:16:29.104Z,11.95
2023-02-12T10:18:55.627Z,11.97
2023-02-12T10:21:31.670Z,12.08
2023-02-12T10:24:05.833Z,12.05
2023-02-12T10:26:38.026Z,11.67
2023-02-12T10:29:27.532Z,12.04
2023-02-12T10:32:14.374Z,12.17
2023-02-12T10:34:41.740Z,12.23
2023-02-12T10:37:21.685Z,12.23
2023-02-12T10:39:55.093Z,12.17
2023-02-12T10:42:33.692Z,12.14
2023-02-12T10:45:00.323Z,12.12
2023-02-12T10:47:26.928Z,12.20
2023-02-12T10:49:58.129Z,12.14
2023-02-12T10:52:24.791Z,11.37
2023-02-12T10:54:51.460Z,11.81
2023-02-12T10:57:23.012Z,11.34
2023-02-12T10:59:51.010Z,11.81
2023-02-12T11:02:29.872Z,11.85
2023-02-12T11:04:58.092Z,12.04
2023-02-12T11:07:25.455Z,11.48
2023-02-12T11:09:53.631Z,11.56
2023-02-12T11:12:30.856Z,11.61
2023-02-12T11:14:58.494Z,11.35
2023-02-12T11:17:35.944Z,11.60
2023-02-12T11:20:22.852Z,11.19
2023-02-12T11:22:57.489Z,11.19
2023-02-12T11:25:26.271Z,11.83
2023-02-12T11:28:00.660Z,11.78
2023-02-12T11:30:27.446Z,11.40
2023-02-12T11:32:54.049Z,11.15
2023-02-12T11:35:25.930Z,11.42
2023-02-12T11:37:56.968Z,11.46
2023-02-12T11:40:35.920Z,11.51
2023-02-12T11:43:09.579Z,11.44
2023-02-12T11:45:52.524Z,11.15
2023-02-12T11:48:19.201Z,11.17
2023-02-12T11:50:51.004Z,11.33
2023-02-12T11:53:23.345Z,11.51
2023-02-12T11:55:54.728Z,11.57
2023-02-12T11:58:22.739Z,11.54
2023-02-12T12:00:53.926Z,11.28
2023-02-12T12:03:35.747Z,10.86
2023-02-12T12:06:07.809Z,10.93
2023-02-12T12:08:37.258Z,10.59
2023-02-12T12:11:03.876Z,10.74
2023-02-12T12:13:35.049Z,10.62
2023-02-12T12:16:27.161Z,10.55
2023-02-12T12:19:15.817Z,10.68
2023-02-12T12:21:50.200Z,10.49
2023-02-12T12:24:40.119Z,10.25
2023-02-12T12:27:38.554Z,10.40
2023-02-12T12:30:08.511Z,10.21
2023-02-12T12:32:38.880Z,10.25
2023-02-12T12:35:10.856Z,10.24
2023-02-12T12:38:03.593Z,10.09
2023-02-12T12:40:55.569Z,10.00
2023-02-12T12:43:37.497Z,9.87
2023-02-12T12:46:09.984Z,10.09
2023-02-12T12:48:59.318Z,9.86
2023-02-12T12:51:47.119Z,10.08
2023-02-12T12:54:28.683Z,10.07
2023-02-12T12:57:10.477Z,10.09
2023-02-12T12:59:37.087Z,10.04
2023-02-12T13:02:10.675Z,9.86
2023-02-12T13:04:37.324Z,9.64
2023-02-12T13:07:03.872Z,9.80
2023-02-12T13:09:33.467Z,9.50
2023-02-12T13:12:03.104Z,9.73
2023-02-12T13:14:43.948Z,9.68
2023-02-12T13:17:16.661Z,9.63
2023-02-12T13:19:53.278Z,9.64
2023-02-12T13:22:29.057Z,9.63
2023-02-12T13:24:55.654Z,9.43
2023-02-12T13:27:24.749Z,9.40
2023-02-12T13:30:10.198Z,9.40
2023-02-12T13:32:43.275Z,9.39
2023-02-12T13:35:14.786Z,9.37
2023-02-12T13:37:48.835Z,9.30
2023-02-12T13:40:18.537Z,9.17
2023-02-12T13:42:54.273Z,9.17
2023-02-12T13:45:26.972Z,9.16
2023-02-12T13:48:03.870Z,9.07
2023-02-12T13:50:49.797Z,9.18
2023-02-12T13:53:19.347Z,9.32
2023-02-12T13:56:07.134Z,9.25
2023-02-12T13:58:39.702Z,9.26
2023-02-12T14:01:08.776Z,9.28
2023-02-12T14:03:36.594Z,9.34
2023-02-12T14:06:15.450Z,9.30
2023-02-12T14:08:46.407Z,9.37
2023-02-12T14:11:14.790Z,9.24
2023-02-12T14:13:53.570Z,9.24
2023-02-12T14:16:34.910Z,9.24
2023-02-12T14:19:19.984Z,9.21
2023-02-12T14:21:46.645Z,9.24
2023-02-12T14:24:32.082Z,9.06
2023-02-12T14:26:59.035Z,9.07
2023-02-12T14:29:25.627Z,8.91
2023-02-12T14:31:52.416Z,8.94
2023-02-12T14:34:22.818Z,8.86
2023-02-12T14:37:09.432Z,8.73
2023-02-12T14:39:36.276Z,8.79
2023-02-12T14:42:05.674Z,8.76
2023-02-12T14:44:52.497Z,8.77
2023-02-12T14:47:31.389Z,8.71
2023-02-12T14:50:02.065Z,8.82
2023-02-12T14:52:37.229Z,8.78
2023-02-12T14:55:18.466Z,8.77
2023-02-12T14:57:45.195Z,8.79
2023-02-12T15:00:17.959Z,8.86
2023-02-12T15:03:04.848Z,8.75
2023-02-12T15:05:37.383Z,8.78
2023-02-12T15:08:04.038Z,9.00
2023-02-12T15:11:03.132Z,8.92
2023-02-12T15:13:34.644Z,8.89
2023-02-12T15:16:13.476Z,8.88
2023-02-12T15:18:43.137Z,8.85
2023-02-12T15:21:09.670Z,8.79
2023-02-12T15:23:43.397Z,8.75
2023-02-12T15:26:13.814Z,8.63
2023-02-12T15:28:41.022Z,8.65
2023-02-12T15:31:11.832Z,8.66
2023-02-12T15:33:48.060Z,8.74
2023-02-12T15:36:18.965Z,8.81
2023-02-12T15:38:50.376Z,8.85
2023-02-12T15:41:32.315Z,8.86
2023-02-12T15:43:59.731Z,8.77
2023-02-12T15:46:26.471Z,8.74
2023-02-12T15:48:55.556Z,8.77
2023-02-12T15:51:28.219Z,8.70
2023-02-12T15:53:55.130Z,8.61
2023-02-12T15:56:23.381Z,8.61
2023-02-12T15:58:52.449Z,8.61
2023-02-12T16:01:20.708Z,8.61
2023-02-12T16:03:54.355Z,8.64
2023-02-12T16:06:22.300Z,8.60
2023-02-12T16:09:15.276Z,8.61
2023-02-12T16:11:45.171Z,8.57
2023-02-12T16:14:43.584Z,8.52
2023-02-12T16:17:22.204Z,8.51
2023-02-12T16:19:56.375Z,8.52
2023-02-12T16:22:32.074Z,8.44
2023-02-12T16:25:01.426Z,8.38
2023-02-12T16:27:30.224Z,8.37
2023-02-12T16:29:59.520Z,8.31
2023-02-12T16:32:39.957Z,8.24
2023-02-12T16:35:09.600Z,8.20
2023-02-12T16:37:36.205Z,8.16
2023-02-12T16:40:11.953Z,8.17
2023-02-12T16:42:40.605Z,8.06
2023-02-12T16:45:32.459Z,8.09
2023-02-12T16:47:59.098Z,8.06
2023-02-12T16:50:29.905Z,8.05
2023-02-12T16:53:01.125Z,7.97
2023-02-12T16:55:30.937Z,7.94
2023-02-12T16:57:57.586Z,7.94
2023-02-12T17:00:27.257Z,7.89
2023-02-12T17:02:54.650Z,7.81
2023-02-12T17:05:25.467Z,7.76
2023-02-12T17:07:52.059Z,7.73
2023-02-12T17:10:18.883Z,7.64
2023-02-12T17:12:49.690Z,7.64
2023-02-12T17:15:28.605Z,7.54
2023-02-12T17:17:55.206Z,7.56
2023-02-12T17:20:21.780Z,7.60
2023-02-12T17:22:52.472Z,7.55
2023-02-12T17:25:19.302Z,7.57
2023-02-12T17:27:45.953Z,7.51
2023-02-12T17:30:17.098Z,7.53
2023-02-12T17:32:44.901Z,7.48
2023-02-12T17:35:14.201Z,7.42
2023-02-12T17:37:40.833Z,7.43
2023-02-12T17:40:07.796Z,7.39
2023-02-12T17:42:36.760Z,7.30
2023-02-12T17:45:03.560Z,7.36
2023-02-12T17:47:31.427Z,7.28
2023-02-12T17:50:00.458Z,7.25
2023-02-12T17:52:28.771Z,7.22
2023-02-12T17:54:55.364Z,7.15
2023-02-12T17:57:21.909Z,7.14
2023-02-12T17:59:48.511Z,7.04
2023-02-12T18:02:15.079Z,7.09
2023-02-12T18:04:41.954Z,7.03
2023-02-12T18:07:09.450Z,7.00
2023-02-12T18:09:38.781Z,6.95
2023-02-12T18:12:05.878Z,6.96
2023-02-12T18:14:32.544Z,6.95
2023-02-12T18:16:59.120Z,6.90
2023-02-12T18:19:26.752Z,6.90
2023-02-12T18:21:53.283Z,6.90
2023-02-12T18:24:19.870Z,6.89
2023-02-12T18:26:46.457Z,6.92
2023-02-12T18:29:13.265Z,6.92
2023-02-12T18:31:40.077Z,6.94
2023-02-12T18:34:07.197Z,6.95
2023-02-12T18:36:34.921Z,6.93
2023-02-12T18:39:01.674Z,6.93
2023-02-12T18:41:29.921Z,6.91
2023-02-12T18:43:57.496Z,6.97
2023-02-12T18:46:25.619Z,6.97
2023-02-12T18:48:55.661Z,7.01
2023-02-12T18:51:23.773Z,7.01
2023-02-12T18:54:06.454Z,7.10
2023-02-12T18:56:35.736Z,7.16
2023-02-12T18:59:04.796Z,7.21
2023-02-12T19:01:32.072Z,7.26
2023-02-12T19:04:00.277Z,7.24
2023-02-12T19:06:27.685Z,7.24
2023-02-12T19:08:57.891Z,7.25
2023-02-12T19:11:25.110Z,7.23
2023-02-12T19:13:51.774Z,7.27
2023-02-12T19:16:19.563Z,7.28
2023-02-12T19:18:48.753Z,7.28
2023-02-12T19:21:19.049Z,7.25
2023-02-12T19:23:45.761Z,7.31
2023-02-12T19:26:13.743Z,7.26
2023-02-12T19:28:40.692Z,7.32
2023-02-12T19:31:15.650Z,7.36
2023-02-12T19:33:42.967Z,7.33
2023-02-12T19:36:11.431Z,7.34
2023-02-12T19:38:38.589Z,7.36
2023-02-12T19:41:06.182Z,7.36
2023-02-12T19:43:32.855Z,7.34
2023-02-12T19:46:03.308Z,7.33
2023-02-12T19:48:29.993Z,7.30
2023-02-12T19:50:57.176Z,7.32
2023-02-12T19:53:24.109Z,7.29
2023-02-12T19:55:50.995Z,7.24
2023-02-12T19:58:17.643Z,7.25
2023-02-12T20:00:44.412Z,7.22
2023-02-12T20:03:11.160Z,7.23
2023-02-12T20:05:44.619Z,7.20
2023-02-12T20:08:11.210Z,7.20
2023-02-12T20:10:41.232Z,7.22
2023-02-12T20:13:07.906Z,7.27
2023-02-12T20:15:36.882Z,7.19
2023-02-12T20:18:07.359Z,7.22
2023-02-12T20:20:35.069Z,7.25
2023-02-12T20:23:01.648Z,7.23
2023-02-12T20:25:28.651Z,7.21
2023-02-12T20:27:55.208Z,7.17
2023-02-12T20:30:22.177Z,7.18
2023-02-12T20:32:48.785Z,7.13
2023-02-12T20:35:15.889Z,7.04
2023-02-12T20:37:44.840Z,7.03
2023-02-12T20:40:11.644Z,6.98
2023-02-12T20:42:38.277Z,6.91
2023-02-12T20:45:05.319Z,6.87
2023-02-12T20:47:31.901Z,6.85
2023-02-12T20:49:58.528Z,6.83
2023-02-12T20:52:25.171Z,6.80
2023-02-12T20:54:51.766Z,6.78
2023-02-12T20:57:18.322Z,6.70
2023-02-12T20:59:45.022Z,6.67
2023-02-12T21:02:11.860Z,6.64
2023-02-12T21:04:38.465Z,6.57
2023-02-12T21:07:04.989Z,6.54
2023-02-12T21:09:31.597Z,6.46
2023-02-12T21:11:59.171Z,6.45
2023-02-12T21:14:26.560Z,6.43
2023-02-12T21:16:54.440Z,6.38
2023-02-12T21:19:21.354Z,6.32
2023-02-12T21:21:47.973Z,6.23
2023-02-12T21:24:15.903Z,6.13
2023-02-12T21:26:42.750Z,6.05
2023-02-12T21:29:09.421Z,6.01
2023-02-12T21:31:37.574Z,5.99
2023-02-12T21:34:05.738Z,5.92
2023-02-12T21:36:36.718Z,5.90
2023-02-12T21:39:06.238Z,5.91
2023-02-12T21:41:36.857Z,5.91
2023-02-12T21:44:08.314Z,5.88
2023-02-12T21:46:35.563Z,5.84
2023-02-12T21:49:02.440Z,5.82
2023-02-12T21:51:30.531Z,5.75
2023-02-12T21:54:00.737Z,5.73
2023-02-12T21:56:27.861Z,5.70
2023-02-12T21:58:54.804Z,5.66
2023-02-12T22:01:24.756Z,5.66
2023-02-12T22:03:51.646Z,5.68
2023-02-12T22:06:19.535Z,5.58
2023-02-12T22:08:46.790Z,5.56
2023-02-12T22:11:13.823Z,5.49
2023-02-12T22:13:40.670Z,5.48
2023-02-12T22:16:11.915Z,5.44
2023-02-12T22:18:43.543Z,5.46
2023-02-12T22:21:13.842Z,5.44
2023-02-12T22:23:40.995Z,5.43
2023-02-12T22:26:08.930Z,5.42
2023-02-12T22:28:40.528Z,5.39
2023-02-12T22:31:08.077Z,5.35
2023-02-12T22:33:34.665Z,5.37
2023-02-12T22:36:04.188Z,5.35
2023-02-12T22:38:34.089Z,5.42
2023-02-12T22:41:00.890Z,5.41
2023-02-12T22:43:31.325Z,5.46
2023-02-12T22:45:58.093Z,5.42
2023-02-12T22:48:27.472Z,5.40
2023-02-12T22:50:54.582Z,5.41
2023-02-12T22:53:21.760Z,5.39
2023-02-12T22:55:48.839Z,5.34
2023-02-12T22:58:16.009Z,5.22
2023-02-12T23:00:44.514Z,5.24
2023-02-12T23:03:11.154Z,5.23
2023-02-12T23:05:38.535Z,5.21
2023-02-12T23:08:06.316Z,5.24
2023-02-12T23:10:33.307Z,5.32
2023-02-12T23:13:01.618Z,5.35
2023-02-12T23:15:28.184Z,5.35
2023-02-12T23:17:54.825Z,5.39
2023-02-12T23:20:21.432Z,5.35
2023-02-12T23:22:51.188Z,5.27
2023-02-12T23:25:17.856Z,5.24
2023-02-12T23:27:46.877Z,5.16
2023-02-12T23:30:13.871Z,5.11
2023-02-12T23:32:40.417Z,5.10
2023-02-12T23:35:07.094Z,5.06
2023-02-12T23:37:33.640Z,5.01
2023-02-12T23:40:01.488Z,5.02
2023-02-12T23:42:28.045Z,4.98
2023-02-12T23:44:57.866Z,5.00
2023-02-12T23:47:24.554Z,4.91
2023-02-12T23:49:51.175Z,4.88
2023-02-12T23:52:17.793Z,4.87
2023-02-12T23:54:44.368Z,4.78
2023-02-12T23:57:10.968Z,4.77
2023-02-12T23:59:40.574Z,4.75
